createdAt,value
2022-09-28T00:00:47.861Z,3.60
2022-09-28T00:06:49.233Z,3.67
2022-09-28T00:12:51.184Z,5.05
2022-09-28T00:18:53.093Z,3.77
2022-09-28T00:24:54.469Z,3.72
2022-09-28T00:30:56.426Z,3.27
2022-09-28T00:36:57.975Z,3.42
2022-09-28T00:43:00.135Z,4.65
2022-09-28T00:49:03.453Z,3.80
2022-09-28T00:55:06.848Z,3.47
2022-09-28T01:01:08.556Z,4.13
2022-09-28T01:07:10.087Z,3.00
2022-09-28T01:13:12.595Z,3.30
2022-09-28T01:19:16.872Z,4.37
2022-09-28T01:25:38.277Z,3.75
2022-09-28T01:31:41.845Z,2.73
2022-09-28T01:37:55.365Z,2.70
2022-09-28T01:43:59.403Z,3.90
2022-09-28T01:50:05.366Z,3.70
2022-09-28T01:56:24.968Z,2.47
2022-09-28T02:02:30.706Z,4.80
2022-09-28T02:08:53.921Z,2.92
2022-09-28T02:15:04.258Z,3.50
2022-09-28T02:21:08.844Z,3.47
2022-09-28T02:27:13.614Z,3.30
2022-09-28T02:33:19.825Z,3.60
2022-09-28T02:39:21.330Z,2.75
2022-09-28T02:45:40.791Z,2.55
2022-09-28T02:52:01.174Z,3.30
2022-09-28T02:58:12.019Z,4.72
2022-09-28T03:04:36.837Z,2.93
2022-09-28T03:10:44.162Z,3.15
2022-09-28T03:16:46.083Z,2.90
2022-09-28T03:23:00.486Z,2.67
2022-09-28T03:29:08.987Z,2.75
2022-09-28T03:35:11.132Z,2.80
2022-09-28T03:41:12.698Z,3.15
2022-09-28T03:47:18.225Z,2.17
2022-09-28T03:53:19.928Z,2.93
2022-09-28T03:59:21.361Z,3.25
2022-09-28T04:05:22.734Z,2.87
2022-09-28T04:11:24.182Z,4.28
2022-09-28T04:17:25.634Z,3.55
2022-09-28T04:23:28.135Z,3.50
2022-09-28T04:29:31.195Z,3.70
2022-09-28T04:35:34.093Z,4.63
2022-09-28T04:41:36.883Z,3.45
2022-09-28T04:47:38.365Z,8.98
2022-09-28T04:54:15.043Z,5.53
2022-09-28T05:00:17.207Z,4.60
2022-09-28T05:06:30.897Z,4.43
2022-09-28T05:12:42.104Z,4.05
2022-09-28T05:18:44.946Z,5.22
2022-09-28T05:24:46.776Z,6.10
2022-09-28T05:30:48.854Z,5.57
2022-09-28T05:36:58.932Z,4.10
2022-09-28T05:43:02.122Z,4.88
2022-09-28T05:49:03.831Z,5.90
2022-09-28T05:55:06.277Z,10.20
2022-09-28T06:01:08.269Z,5.43
2022-09-28T06:07:10.198Z,5.53
2022-09-28T06:13:12.051Z,6.65
2022-09-28T06:19:14.326Z,5.38
2022-09-28T06:25:40.391Z,7.73
2022-09-28T06:31:41.847Z,7.03
2022-09-28T06:37:44.647Z,6.63
2022-09-28T06:43:47.390Z,10.80
2022-09-28T06:50:29.091Z,11.85
2022-09-28T06:57:00.337Z,8.60
2022-09-28T07:03:02.535Z,8.20
2022-09-28T07:09:31.474Z,7.37
2022-09-28T07:15:55.485Z,8.50
2022-09-28T07:22:04.735Z,9.30
2022-09-28T07:28:09.806Z,9.13
2022-09-28T07:34:23.468Z,10.93
2022-09-28T07:40:59.145Z,7.73
2022-09-28T07:47:02.526Z,7.97
2022-09-28T07:53:30.989Z,7.22
2022-09-28T07:59:53.552Z,8.13
2022-09-28T08:06:18.265Z,8.38
2022-09-28T08:12:21.003Z,5.60
2022-09-28T08:18:41.124Z,5.45
2022-09-28T08:24:42.784Z,4.93
2022-09-28T08:30:45.117Z,4.57
2022-09-28T08:37:24.436Z,5.95
2022-09-28T08:43:47.998Z,4.33
2022-09-28T08:50:14.110Z,8.07
2022-09-28T08:56:47.278Z,4.28
2022-09-28T09:02:49.174Z,4.70
2022-09-28T09:09:02.023Z,2.88
2022-09-28T09:15:22.706Z,2.50
2022-09-28T09:21:38.838Z,2.50
2022-09-28T09:27:48.281Z,2.67
2022-09-28T09:33:56.306Z,1.80
2022-09-28T09:40:56.377Z,2.38
2022-09-28T09:47:21.637Z,2.73
2022-09-28T09:53:38.598Z,1.23
2022-09-28T09:59:42.827Z,2.00
2022-09-28T10:06:21.479Z,2.30
2022-09-28T10:12:23.452Z,2.83
2022-09-28T10:18:25.688Z,2.37
2022-09-28T10:24:46.507Z,2.33
2022-09-28T10:30:48.160Z,2.20
2022-09-28T10:36:58.406Z,3.33
2022-09-28T10:43:03.224Z,3.35
2022-09-28T10:49:16.904Z,2.33
2022-09-28T10:55:26.550Z,3.92
2022-09-28T11:01:33.026Z,4.47
2022-09-28T11:07:44.350Z,3.47
2022-09-28T11:13:48.135Z,4.15
2022-09-28T11:19:56.527Z,2.80
2022-09-28T11:26:07.810Z,2.65
2022-09-28T11:32:13.684Z,3.25
2022-09-28T11:38:45.966Z,4.10
2022-09-28T11:45:26.627Z,4.95
2022-09-28T11:51:30.772Z,3.80
2022-09-28T11:57:36.210Z,4.22
2022-09-28T12:03:40.986Z,4.18
2022-09-28T12:09:48.502Z,5.00
2022-09-28T12:22:25.233Z,9.17
2022-09-28T12:28:29.375Z,4.25
2022-09-28T12:34:30.878Z,4.25
2022-09-28T12:40:48.883Z,4.70
2022-09-28T12:47:06.099Z,6.68
2022-09-28T12:53:20.247Z,3.73
2022-09-28T12:59:29.129Z,3.72
2022-09-28T13:05:40.085Z,3.70
2022-09-28T13:11:59.858Z,4.13
2022-09-28T13:18:08.064Z,4.18
2022-09-28T13:24:31.005Z,3.80
2022-09-28T13:30:36.216Z,3.67
2022-09-28T13:36:38.811Z,3.75
2022-09-28T13:42:46.240Z,3.50
2022-09-28T13:49:11.506Z,3.30
2022-09-28T13:55:13.074Z,4.87
2022-09-28T14:01:16.447Z,3.60
2022-09-28T14:07:23.760Z,3.30
2022-09-28T14:13:40.559Z,3.50
2022-09-28T14:19:42.266Z,3.70
2022-09-28T14:25:59.080Z,3.20
2022-09-28T14:32:09.314Z,3.47
2022-09-28T14:38:34.282Z,3.50
2022-09-28T14:44:54.641Z,3.63
2022-09-28T14:51:15.963Z,5.43
2022-09-28T14:57:22.036Z,4.93
2022-09-28T15:03:24.207Z,4.30
2022-09-28T15:09:35.687Z,3.67
2022-09-28T15:15:38.811Z,5.53
2022-09-28T15:21:41.252Z,3.90
2022-09-28T15:27:42.745Z,3.40
2022-09-28T15:34:02.914Z,3.47
2022-09-28T15:40:11.306Z,3.65
2022-09-28T15:46:15.263Z,3.90
2022-09-28T15:52:33.900Z,4.15
2022-09-28T15:58:35.507Z,4.17
2022-09-28T16:04:42.949Z,4.55
2022-09-28T16:10:53.370Z,4.20
2022-09-28T16:16:55.239Z,5.77
2022-09-28T16:22:59.396Z,8.90
2022-09-28T16:29:06.052Z,5.43
2022-09-28T16:35:15.702Z,4.53
2022-09-28T16:41:19.643Z,4.80
2022-09-28T16:47:20.979Z,7.67
2022-09-28T16:53:41.394Z,5.53
2022-09-28T16:59:42.768Z,5.03
2022-09-28T17:05:44.595Z,6.80
2022-09-28T17:11:45.979Z,7.15
2022-09-28T17:17:48.478Z,8.60
2022-09-28T17:23:50.079Z,6.78
2022-09-28T17:29:51.455Z,7.70
2022-09-28T17:35:56.146Z,7.57
2022-09-28T17:41:57.798Z,7.70
2022-09-28T17:48:00.634Z,6.63
2022-09-28T17:54:02.104Z,6.05
2022-09-28T18:00:03.803Z,7.83
2022-09-28T18:06:06.983Z,8.02
2022-09-28T18:12:08.483Z,7.38
2022-09-28T18:18:10.322Z,8.67
2022-09-28T18:24:11.807Z,7.10
2022-09-28T18:30:13.345Z,9.27
2022-09-28T18:36:14.786Z,8.25
2022-09-28T18:42:16.470Z,10.27
2022-09-28T18:48:17.873Z,10.07
2022-09-28T18:54:19.537Z,13.52
2022-09-28T19:00:21.259Z,11.60
2022-09-28T19:06:22.697Z,10.43
2022-09-28T19:12:24.384Z,11.70
2022-09-28T19:18:26.056Z,13.03
2022-09-28T19:24:27.497Z,11.45
2022-09-28T19:30:29.936Z,10.20
2022-09-28T19:36:31.891Z,13.85
2022-09-28T19:42:35.221Z,11.68
2022-09-28T19:48:36.624Z,9.70
2022-09-28T19:54:38.107Z,11.50
2022-09-28T20:00:39.746Z,10.57
2022-09-28T20:06:41.265Z,9.40
2022-09-28T20:12:42.992Z,8.75
2022-09-28T20:18:49.832Z,7.60
2022-09-28T20:24:51.227Z,8.75
2022-09-28T20:30:52.648Z,8.97
2022-09-28T20:36:54.113Z,9.93
2022-09-28T20:42:55.667Z,7.88
2022-09-28T20:48:57.916Z,7.97
2022-09-28T20:54:59.380Z,8.15
2022-09-28T21:01:05.718Z,7.07
2022-09-28T21:07:07.875Z,7.05
2022-09-28T21:13:09.291Z,6.75
2022-09-28T21:19:10.757Z,7.20
2022-09-28T21:25:12.181Z,7.28
2022-09-28T21:31:14.143Z,6.83
2022-09-28T21:37:15.785Z,7.35
2022-09-28T21:43:17.215Z,6.32
2022-09-28T21:49:18.756Z,5.83
2022-09-28T21:55:21.015Z,6.05
2022-09-28T22:01:23.688Z,7.33
2022-09-28T22:07:25.160Z,9.63
2022-09-28T22:13:27.704Z,7.07
2022-09-28T22:19:29.112Z,6.37
2022-09-28T22:25:30.527Z,5.80
2022-09-28T22:31:34.009Z,6.47
2022-09-28T22:37:35.467Z,7.97
2022-09-28T22:43:36.899Z,7.00
2022-09-28T22:49:38.320Z,8.57
2022-09-28T22:55:40.704Z,8.80
2022-09-28T23:01:42.461Z,8.13
2022-09-28T23:07:43.901Z,9.10
2022-09-28T23:13:48.757Z,7.90
2022-09-28T23:19:50.186Z,7.50
2022-09-28T23:25:52.331Z,8.63
2022-09-28T23:31:53.762Z,6.97
2022-09-28T23:37:55.167Z,6.78
2022-09-28T23:43:56.650Z,8.30
2022-09-28T23:49:58.412Z,7.53
2022-09-28T23:56:00.133Z,9.13
